x

North Nomad (46184) Wave Buoy

9:00pm - Sun 24th May 2015 All times are AKDT. -8 hours from GMT.

  • Sig Wave height 3.6ft
  • Peak Period 9s
  • Wind
    11mph, 13mph gusts
  • Sea Temp 51°f
  • Air Temp 50°f
  • Sea Pressure 1020.9mb
  • North Nomad
  • North Nomad

More Historic Weather Station data

Upgrade to MSW Pro to gain access to the past 30 days of data for over 8000 Wavebouys and Weather Stations around the globe.

Join Pro

Comparision Forecast

View Surf forecast
   
Sun 05/24 9:00pm 3.5ft 9s 11 13 mph 1020.9mb 51f 50f
8:00pm 3.5ft 10s 13 16 mph 1020.9mb 51f 50f
7:00pm 3.5ft 16s 9 11 mph 1020.6mb 51f 51f
6:00pm 3.5ft 16s 7 9 mph 1020.9mb 51f 51f
5:00pm 3.5ft 10s 7 9 mph 1021.2mb 51f 51f
4:00pm 3.5ft 10s 9 11 mph 1021.7mb 51f 51f
3:00pm 4ft 11s 11 13 mph 1022.1mb 51f 51f
2:00pm 4ft 10s 9 13 mph 1022.5mb 51f 51f
1:00pm 4ft 10s 9
mph
1022.9mb 51f 51f
12:00pm 4.5ft 10s 9 13 mph 1023.2mb 51f 51f
11:00am 4.5ft 10s 11 13 mph 1023.5mb 51f 50f
10:00am 4.5ft 11s 13 16 mph 1023.7mb 51f 49f
9:00am 4ft 10s 13 18 mph 1023.9mb 51f 49f
8:00am 4.5ft 10s 13 18 mph 1023.9mb 51f 49f
7:00am 4ft 11s 11 13 mph 1024.2mb 51f 49f
6:00am 4.5ft 10s 13
mph
1024.2mb 51f 49f
5:00am 4.5ft 11s 13 16 mph 1024.4mb 51f 50f
4:00am 4ft 11s 11 13 mph 1024.6mb 51f 50f
3:00am 4ft 10s 9 11 mph 1024.9mb 51f 50f
2:00am 4.5ft 11s 9 11 mph 1025.1mb 51f 51f
1:00am 4.5ft 11s 7 9 mph 1025.5mb 51f 51f
12:00am 4.5ft 11s 9
mph
1025.7mb 51f 51f
Sat 05/23 11:00pm 4.5ft 11s 9
mph
1025.8mb 51f 51f
10:00pm 4.5ft 11s 9 11 mph 1025.8mb 51f 51f
9:00pm 4.5ft 11s 9
mph
1025.7mb 51f 51f
8:00pm 4.5ft 11s 7 9 mph 1025.4mb 51f 51f
7:00pm 4.5ft 11s 7 9 mph 1025.4mb 51f 51f
6:00pm 4.5ft 12s 7 9 mph 1025.5mb 51f 51f
5:00pm 5ft 11s 9 11 mph 1025.5mb 51f 51f
4:00pm 4.5ft 11s 9 11 mph 1025.7mb 51f 51f
3:00pm 4.5ft 11s 11 13 mph 1025.8mb 51f 51f
2:00pm 4.5ft 12s 11 13 mph 1025.9mb 51f 51f
1:00pm 4.5ft 11s 9 11 mph 1025.6mb 51f 51f
12:00pm 4.5ft 11s 9
mph
1025.6mb 51f 51f
11:00am 4.5ft 11s 7 9 mph 1025.6mb 51f 51f
10:00am 4.5ft 10s 9
mph
1025.5mb 51f 51f
9:00am 4.5ft 12s 4 7 mph 1025.3mb 51f 51f
8:00am 5ft 7s 2 4 mph 1025mb 50f 51f
7:00am 5ft 11s 2
mph
1024.8mb 50f 51f
6:00am 5ft 10s 4
mph
1024.6mb 50f 51f
5:00am 5ft 11s 7 9 mph 1024.6mb 50f 51f
4:00am 4.5ft 11s 4 7 mph 1024.7mb 50f 51f
3:00am 5ft 10s 9
mph
1024.7mb 50f 51f
2:00am 5ft 9s 13 16 mph 1024.8mb 50f 51f
1:00am 5ft 12s 11 16 mph 1024.9mb 50f 51f
12:00am 5ft 7s 13 16 mph 1024.9mb 50f 51f
Fri 05/22 11:00pm 5ft 11s 9 13 mph 1025.1mb 50f 50f
10:00pm 5ft 11s 9 11 mph 1024.9mb 50f 50f
9:00pm 5.5ft 6s 9 11 mph 1024.7mb 50f 50f
8:00pm 6ft 11s 11 13 mph 1024.7mb 50f 50f
7:00pm 6ft 11s 13 16 mph 1024.5mb 50f 50f
6:00pm 6ft 10s 13 16 mph 1024.6mb 50f 50f
5:00pm 6ft 12s 16 18 mph 1024.8mb 50f 50f
4:00pm 6ft 10s 16 18 mph 1024.9mb 50f 50f
3:00pm 6ft 12s 13 16 mph 1025mb 50f 50f
2:00pm 6ft 12s 13 16 mph 1024.9mb 50f 50f
1:00pm 6ft 12s 16 18 mph 1024.9mb 50f 49f
12:00pm 6ft 12s 16 20 mph 1024.9mb 50f 49f
11:00am 6ft 12s 18 22 mph 1024.8mb 50f 49f
10:00am 6ft 12s 16 20 mph 1024.5mb 50f 49f
9:00am 6ft 12s 16 20 mph 1024.4mb 50f 49f
8:00am 6ft 10s 13 18 mph 1024.6mb 50f 48f
7:00am 6ft 10s 16 20 mph 1024.4mb 50f 49f
6:00am 5.5ft 10s 16 18 mph 1024.4mb 50f 49f
5:00am 6ft 10s 16 18 mph 1024.2mb 50f 49f
3:00am 5.5ft 10s 9 11 mph 1024.4mb 50f 50f
2:00am 5ft 13s 13 16 mph 1024.2mb 50f 50f
1:00am 5ft 13s 11 13 mph 1024.7mb 50f 50f
12:00am 5ft 10s 13 16 mph 1024.7mb 50f 50f
Thu 05/21 11:00pm 5ft 9s 11 16 mph 1024.4mb 50f 50f
10:00pm 5.5ft 14s 13 18 mph 1024.3mb 50f 49f
9:00pm 5.5ft 7s 16 20 mph 1024mb 50f 49f
8:00pm 5ft 10s 13 16 mph 1024mb 50f 49f
7:00pm 5ft 10s 13
mph
1023.8mb 50f 49f
6:00pm 5ft 10s 13
mph
1023.7mb 50f 49f
5:00pm 5ft 11s 13 16 mph 1024.2mb 50f 49f
4:00pm 4.5ft 7s 13 18 mph 1024.2mb 50f 49f
3:00pm 4.5ft 7s 11 18 mph 1024.2mb 50f 49f
2:00pm 4ft 11s 11 16 mph 1024.2mb 50f 48f
1:00pm 4.5ft 6s 11 13 mph 1024.3mb 50f 48f
12:00pm 4ft 6s 13
mph
1024.4mb 50f 48f
11:00am 4ft 5s 11 16 mph 1024.3mb 50f 48f
10:00am 4ft 7s 13 16 mph 1024.4mb 50f 47f
9:00am 4ft 6s 13 16 mph 1024.5mb 50f 47f
8:00am 4.5ft 6s 13 18 mph 1024.2mb 50f 47f
7:00am 4ft  -  13 18 mph 1024mb 50f 47f